createdAt,value
2023-03-22T00:01:36.812Z,83.35
2023-03-22T00:04:09.310Z,83.40
2023-03-22T00:06:41.251Z,83.54
2023-03-22T00:09:13.484Z,83.45
2023-03-22T00:11:46.367Z,83.48
2023-03-22T00:14:18.564Z,83.48
2023-03-22T00:16:50.531Z,83.55
2023-03-22T00:19:23.901Z,83.34
2023-03-22T00:21:55.812Z,83.36
2023-03-22T00:24:27.788Z,83.76
2023-03-22T00:27:00.513Z,84.01
2023-03-22T00:29:32.840Z,84.17
2023-03-22T00:32:04.970Z,84.42
2023-03-22T00:34:37.524Z,84.43
2023-03-22T00:37:09.551Z,84.46
2023-03-22T00:39:41.746Z,84.55
2023-03-22T00:42:13.704Z,84.62
2023-03-22T00:44:46.288Z,84.77
2023-03-22T00:47:18.440Z,84.88
2023-03-22T00:49:50.537Z,84.99
2023-03-22T00:52:22.839Z,84.98
2023-03-22T00:54:54.830Z,84.80
2023-03-22T00:57:27.003Z,84.88
2023-03-22T01:00:08.310Z,84.74
2023-03-22T01:02:40.370Z,84.80
2023-03-22T01:05:16.758Z,85.17
2023-03-22T01:07:50.820Z,84.84
2023-03-22T01:10:21.608Z,85.41
2023-03-22T01:12:54.290Z,85.61
2023-03-22T01:15:26.416Z,86.18
2023-03-22T01:17:58.304Z,86.06
2023-03-22T01:20:33.324Z,86.15
2023-03-22T01:23:05.176Z,86.30
2023-03-22T01:25:38.081Z,86.81
2023-03-22T01:28:10.148Z,86.68
2023-03-22T01:30:43.169Z,86.61
2023-03-22T01:33:15.437Z,86.60
2023-03-22T01:35:47.798Z,86.65
2023-03-22T01:38:19.986Z,86.72
2023-03-22T01:40:54.902Z,86.77
2023-03-22T01:43:29.264Z,87.09
2023-03-22T01:46:01.558Z,87.19
2023-03-22T01:48:35.266Z,87.16
2023-03-22T01:51:11.134Z,87.47
2023-03-22T01:53:46.323Z,87.46
2023-03-22T01:56:20.098Z,87.11
2023-03-22T01:58:52.761Z,87.17
2023-03-22T02:01:25.956Z,87.04
2023-03-22T02:04:02.264Z,87.18
2023-03-22T02:06:38.264Z,87.58
2023-03-22T02:09:11.897Z,87.97
2023-03-22T02:11:51.424Z,87.98
2023-03-22T02:14:31.749Z,87.83
2023-03-22T02:17:15.912Z,87.78
2023-03-22T02:20:19.743Z,88.06
2023-03-22T02:23:08.485Z,88.09
2023-03-22T02:26:09.382Z,88.60
2023-03-22T02:28:46.874Z,88.97
2023-03-22T02:31:30.776Z,89.23
2023-03-22T02:34:29.067Z,89.32
2023-03-22T02:37:35.668Z,89.76
2023-03-22T02:40:10.859Z,90.08
2023-03-22T02:42:49.621Z,90.02
2023-03-22T02:45:29.342Z,89.80
2023-03-22T02:48:09.512Z,89.85
2023-03-22T02:50:44.955Z,90.30
2023-03-22T02:53:20.190Z,90.29
2023-03-22T02:55:55.938Z,90.38
2023-03-22T02:58:30.493Z,90.67
2023-03-22T03:01:06.149Z,90.86
2023-03-22T03:03:39.774Z,90.83
2023-03-22T03:06:14.749Z,91.01
2023-03-22T03:08:47.911Z,91.34
2023-03-22T03:11:20.839Z,91.52
2023-03-22T03:13:53.450Z,91.68
2023-03-22T03:16:28.554Z,91.79
2023-03-22T03:19:04.823Z,91.57
2023-03-22T03:21:42.719Z,91.83
2023-03-22T03:24:22.262Z,91.55
2023-03-22T03:27:00.619Z,91.39
2023-03-22T03:29:38.189Z,92.06
2023-03-22T03:32:14.441Z,92.11
2023-03-22T03:34:49.763Z,92.37
2023-03-22T03:37:24.077Z,92.61
2023-03-22T03:39:58.879Z,93.05
2023-03-22T03:42:32.531Z,93.43
2023-03-22T03:45:05.351Z,93.29
2023-03-22T03:47:37.807Z,93.04
2023-03-22T03:50:11.920Z,92.87
2023-03-22T03:52:46.122Z,93.05
2023-03-22T03:55:16.384Z,93.02
2023-03-22T03:57:48.734Z,93.02
2023-03-22T04:00:21.626Z,93.55
2023-03-22T04:02:53.915Z,93.76
2023-03-22T04:05:26.134Z,93.90
2023-03-22T04:07:58.421Z,93.81
2023-03-22T04:10:30.375Z,94.02
2023-03-22T04:13:02.475Z,94.47
2023-03-22T04:15:34.305Z,94.37
2023-03-22T04:18:07.255Z,93.90
2023-03-22T04:20:41.863Z,94.27
2023-03-22T04:23:14.395Z,94.23
2023-03-22T04:25:53.510Z,94.30
2023-03-22T04:28:26.537Z,94.50
2023-03-22T04:30:59.289Z,94.72
2023-03-22T04:33:39.677Z,95.40
2023-03-22T04:36:16.063Z,95.40
2023-03-22T04:38:48.135Z,95.41
2023-03-22T04:41:20.022Z,95.20
2023-03-22T04:43:52.710Z,95.21
2023-03-22T04:46:24.755Z,95.25
2023-03-22T04:48:57.409Z,95.42
2023-03-22T04:51:33.420Z,95.53
2023-03-22T04:54:06.005Z,95.41
2023-03-22T04:56:37.788Z,95.18
2023-03-22T04:59:11.292Z,95.23
2023-03-22T05:01:43.121Z,95.59
2023-03-22T05:04:15.748Z,95.52
2023-03-22T05:06:48.084Z,95.56
2023-03-22T05:09:23.251Z,95.60
2023-03-22T05:11:55.899Z,95.34
2023-03-22T05:14:28.518Z,95.41
2023-03-22T05:17:00.438Z,95.53
2023-03-22T05:19:33.520Z,95.61
2023-03-22T05:22:05.391Z,95.53
2023-03-22T05:24:37.686Z,95.52
2023-03-22T05:27:11.100Z,95.52
2023-03-22T05:29:45.322Z,95.97
2023-03-22T05:32:18.521Z,96.48
2023-03-22T05:34:50.611Z,97.08
2023-03-22T05:37:22.665Z,96.98
2023-03-22T05:39:54.985Z,97.28
2023-03-22T05:42:27.126Z,97.40
2023-03-22T05:44:59.348Z,97.49
2023-03-22T05:47:31.249Z,97.09
2023-03-22T05:50:03.878Z,97.06
2023-03-22T05:52:35.736Z,97.59
2023-03-22T05:55:09.488Z,97.47
2023-03-22T05:57:41.661Z,97.15
2023-03-22T06:00:17.331Z,97.33
2023-03-22T06:02:56.490Z,97.11
2023-03-22T06:05:28.668Z,97.37
2023-03-22T06:08:00.624Z,97.18
2023-03-22T06:10:32.709Z,97.25
2023-03-22T06:13:06.117Z,97.31
2023-03-22T06:15:38.779Z,97.23
2023-03-22T06:18:11.224Z,97.41
2023-03-22T06:20:45.048Z,97.44
2023-03-22T06:23:17.476Z,97.77
2023-03-22T06:25:49.612Z,98.02
2023-03-22T06:28:21.458Z,97.85
2023-03-22T06:30:54.126Z,97.81
2023-03-22T06:33:26.247Z,97.84
2023-03-22T06:35:59.079Z,98.04
2023-03-22T06:38:31.325Z,97.98
2023-03-22T06:41:03.758Z,97.96
2023-03-22T06:43:36.082Z,97.88
2023-03-22T06:46:09.056Z,98.06
2023-03-22T06:48:40.916Z,97.95
2023-03-22T06:51:12.915Z,98.08
2023-03-22T06:53:45.540Z,98.47
2023-03-22T06:56:17.666Z,98.44
2023-03-22T06:58:51.828Z,98.53
2023-03-22T07:01:24.141Z,98.54
2023-03-22T07:03:56.056Z,98.03
2023-03-22T07:06:28.731Z,97.92
2023-03-22T07:09:02.032Z,97.95
2023-03-22T07:11:34.469Z,98.05
2023-03-22T07:14:06.390Z,98.23
2023-03-22T07:16:39.713Z,98.01
2023-03-22T07:19:18.140Z,98.03
2023-03-22T07:21:50.216Z,98.14
2023-03-22T07:24:22.102Z,97.88
2023-03-22T07:26:54.217Z,97.71
2023-03-22T07:29:26.164Z,97.43
2023-03-22T07:31:58.575Z,97.51
2023-03-22T07:34:30.567Z,97.75
2023-03-22T07:37:03.228Z,96.63
2023-03-22T07:39:35.268Z,96.21
2023-03-22T07:42:07.681Z,95.75
2023-03-22T07:44:39.549Z,94.99
2023-03-22T07:47:12.014Z,94.46
2023-03-22T07:49:43.857Z,94.31
2023-03-22T07:52:16.403Z,94.40
2023-03-22T07:54:48.164Z,94.22
2023-03-22T07:57:20.873Z,94.01
2023-03-22T07:59:52.704Z,93.47
2023-03-22T08:02:25.971Z,92.95
2023-03-22T08:04:57.961Z,92.66
2023-03-22T08:07:31.750Z,91.98
2023-03-22T08:10:03.586Z,91.14
2023-03-22T08:12:37.592Z,91.03
2023-03-22T08:15:11.628Z,90.82
2023-03-22T08:17:43.918Z,88.88
2023-03-22T08:20:18.538Z,88.18
2023-03-22T08:22:50.959Z,88.45
2023-03-22T08:25:23.632Z,88.12
2023-03-22T08:27:56.134Z,87.57
2023-03-22T08:30:28.037Z,87.11
2023-03-22T08:33:00.419Z,85.69
2023-03-22T08:35:32.581Z,85.07
2023-03-22T08:38:05.607Z,84.18
2023-03-22T08:40:37.548Z,83.71
2023-03-22T08:43:12.359Z,83.01
2023-03-22T08:45:44.173Z,81.13
2023-03-22T08:48:16.875Z,81.21
2023-03-22T08:50:48.711Z,80.99
2023-03-22T08:53:21.269Z,80.18
2023-03-22T08:55:53.138Z,79.69
2023-03-22T08:58:27.452Z,79.45
2023-03-22T09:00:59.387Z,79.47
2023-03-22T09:03:31.592Z,79.74
2023-03-22T09:06:03.466Z,80.06
2023-03-22T09:08:35.436Z,79.02
2023-03-22T09:11:08.990Z,78.96
2023-03-22T09:13:41.156Z,78.94
2023-03-22T09:16:13.155Z,79.52
2023-03-22T09:18:48.231Z,79.16
2023-03-22T09:21:21.929Z,79.27
2023-03-22T09:23:54.378Z,79.24
2023-03-22T09:26:29.304Z,78.75
2023-03-22T09:29:01.584Z,77.95
2023-03-22T09:31:33.440Z,77.48
2023-03-22T09:34:05.821Z,76.89
2023-03-22T09:36:38.221Z,77.21
2023-03-22T09:39:10.603Z,76.29
2023-03-22T09:41:45.814Z,76.01
2023-03-22T09:44:19.725Z,75.92
2023-03-22T09:46:53.936Z,76.05
2023-03-22T09:49:30.385Z,74.69
2023-03-22T09:52:03.639Z,75.10
2023-03-22T09:54:37.474Z,73.88
2023-03-22T09:57:13.021Z,73.13
2023-03-22T09:59:48.456Z,72.82
2023-03-22T10:02:38.944Z,73.32
2023-03-22T10:05:26.247Z,73.58
2023-03-22T10:08:22.809Z,73.68
2023-03-22T10:10:54.911Z,71.43
2023-03-22T10:13:31.593Z,72.17
2023-03-22T10:16:05.462Z,71.87
2023-03-22T10:18:39.392Z,72.33
2023-03-22T10:21:10.421Z,70.98
2023-03-22T10:23:46.662Z,71.08
2023-03-22T10:26:22.803Z,71.57
2023-03-22T10:29:03.767Z,71.88
2023-03-22T10:31:36.790Z,72.12
2023-03-22T10:34:13.458Z,72.19
2023-03-22T10:36:46.823Z,71.87
2023-03-22T10:39:27.289Z,72.22
2023-03-22T10:42:01.387Z,71.11
2023-03-22T10:44:34.973Z,69.51
2023-03-22T10:47:11.089Z,69.67
2023-03-22T10:49:45.947Z,70.13
2023-03-22T10:52:27.461Z,70.31
2023-03-22T10:55:03.795Z,69.94
2023-03-22T10:57:36.455Z,70.62
2023-03-22T11:00:11.716Z,70.90
2023-03-22T11:02:52.909Z,71.26
2023-03-22T11:05:27.164Z,69.90
2023-03-22T11:08:00.140Z,69.98
2023-03-22T11:10:33.353Z,69.64
2023-03-22T11:13:21.706Z,69.48
2023-03-22T11:15:56.502Z,69.42
2023-03-22T11:18:33.379Z,69.28
2023-03-22T11:21:09.837Z,69.37
2023-03-22T11:23:44.836Z,69.88
2023-03-22T11:26:28.631Z,69.78
2023-03-22T11:29:14.695Z,69.81
2023-03-22T11:31:58.855Z,69.43
2023-03-22T11:34:32.218Z,69.91
2023-03-22T11:37:04.100Z,70.62
2023-03-22T11:39:36.499Z,70.28
2023-03-22T11:42:09.868Z,69.62
2023-03-22T11:44:42.070Z,69.81
2023-03-22T11:47:15.796Z,70.34
2023-03-22T11:49:49.804Z,69.36
2023-03-22T11:52:24.827Z,69.74
2023-03-22T11:54:57.518Z,70.24
2023-03-22T11:57:32.286Z,69.21
2023-03-22T12:00:09.729Z,69.43
2023-03-22T12:02:46.535Z,69.63
2023-03-22T12:05:23.482Z,69.71
2023-03-22T12:07:58.931Z,69.31
2023-03-22T12:10:32.960Z,68.30
2023-03-22T12:13:04.654Z,67.52
2023-03-22T12:15:40.223Z,67.59
2023-03-22T12:18:16.529Z,68.43
2023-03-22T12:20:53.610Z,67.79
2023-03-22T12:23:27.159Z,68.36
2023-03-22T12:26:03.871Z,68.12
2023-03-22T12:28:40.629Z,67.23
2023-03-22T12:31:17.715Z,67.36
2023-03-22T12:33:50.485Z,67.37
2023-03-22T12:36:25.171Z,67.25
2023-03-22T12:38:59.048Z,66.99
2023-03-22T12:41:35.382Z,67.16
2023-03-22T12:44:13.219Z,66.19
2023-03-22T12:46:51.544Z,65.95
2023-03-22T12:49:29.977Z,66.19
2023-03-22T12:52:12.204Z,66.00
2023-03-22T12:54:44.940Z,65.64
2023-03-22T12:57:18.046Z,65.06
2023-03-22T12:59:52.234Z,63.80
2023-03-22T13:02:31.060Z,63.98
2023-03-22T13:05:05.211Z,64.81
2023-03-22T13:07:41.536Z,64.27
2023-03-22T13:10:52.160Z,63.57
2023-03-22T13:13:48.025Z,63.84
2023-03-22T13:16:25.896Z,63.17
2023-03-22T13:19:03.444Z,64.13
2023-03-22T13:21:39.081Z,64.71
2023-03-22T13:24:27.117Z,64.95
2023-03-22T13:27:02.160Z,64.68
2023-03-22T13:29:39.164Z,64.18
2023-03-22T13:32:30.318Z,64.02
2023-03-22T13:35:02.823Z,63.87
2023-03-22T13:37:36.983Z,64.53
2023-03-22T13:40:25.327Z,63.87
2023-03-22T13:42:57.299Z,64.19
2023-03-22T13:45:34.615Z,64.31
2023-03-22T13:48:11.337Z,64.39
2023-03-22T13:50:43.709Z,64.19
2023-03-22T13:53:22.089Z,64.56
2023-03-22T13:56:04.935Z,64.25
2023-03-22T13:58:53.824Z,64.15
2023-03-22T14:01:31.810Z,64.56
2023-03-22T14:04:06.010Z,64.24
2023-03-22T14:06:44.066Z,64.59
2023-03-22T14:09:24.685Z,64.00
2023-03-22T14:12:00.351Z,64.34
2023-03-22T14:14:36.814Z,64.24
2023-03-22T14:17:17.669Z,64.59
2023-03-22T14:19:50.692Z,64.91
